sensor_id;sensor_type;location;lat;lon;timestamp;temperature;humidity
12682;DHT22;6405;59.208;18.216;2023-06-14T00:02:04;9.30;99.90
12682;DHT22;6405;59.208;18.216;2023-06-14T00:04:33;9.20;99.90
12682;DHT22;6405;59.208;18.216;2023-06-14T00:06:59;9.20;99.90
12682;DHT22;6405;59.208;18.216;2023-06-14T00:09:24;9.10;99.90
12682;DHT22;6405;59.208;18.216;2023-06-14T00:11:50;9.10;99.90
12682;DHT22;6405;59.208;18.216;2023-06-14T00:14:16;9.10;99.90
12682;DHT22;6405;59.208;18.216;2023-06-14T00:16:42;9.10;99.90
12682;DHT22;6405;59.208;18.216;2023-06-14T00:19:10;9.00;99.90
12682;DHT22;6405;59.208;18.216;2023-06-14T00:21:39;9.00;99.90
12682;DHT22;6405;59.208;18.216;2023-06-14T00:24:05;9.00;99.90
12682;DHT22;6405;59.208;18.216;2023-06-14T00:26:31;9.00;99.90
12682;DHT22;6405;59.208;18.216;2023-06-14T00:28:56;9.00;99.90
12682;DHT22;6405;59.208;18.216;2023-06-14T00:31:22;8.90;99.90
12682;DHT22;6405;59.208;18.216;2023-06-14T00:33:48;8.90;99.90
12682;DHT22;6405;59.208;18.216;2023-06-14T00:36:14;8.90;99.90
12682;DHT22;6405;59.208;18.216;2023-06-14T00:38:40;8.90;99.90
12682;DHT22;6405;59.208;18.216;2023-06-14T00:41:05;8.80;99.90
12682;DHT22;6405;59.208;18.216;2023-06-14T00:43:31;8.80;99.90
12682;DHT22;6405;59.208;18.216;2023-06-14T00:45:57;8.70;99.90
12682;DHT22;6405;59.208;18.216;2023-06-14T00:48:24;8.70;99.90
12682;DHT22;6405;59.208;18.216;2023-06-14T00:50:51;8.70;99.90
12682;DHT22;6405;59.208;18.216;2023-06-14T00:53:18;8.70;99.90
12682;DHT22;6405;59.208;18.216;2023-06-14T00:55:46;8.60;99.90
12682;DHT22;6405;59.208;18.216;2023-06-14T00:58:12;8.60;99.90
12682;DHT22;6405;59.208;18.216;2023-06-14T01:00:39;8.60;99.90
12682;DHT22;6405;59.208;18.216;2023-06-14T01:03:04;8.60;99.90
12682;DHT22;6405;59.208;18.216;2023-06-14T01:05:31;8.60;99.90
12682;DHT22;6405;59.208;18.216;2023-06-14T01:08:11;8.60;99.90
12682;DHT22;6405;59.208;18.216;2023-06-14T01:11:07;8.50;99.90
12682;DHT22;6405;59.208;18.216;2023-06-14T01:13:40;8.50;99.90
12682;DHT22;6405;59.208;18.216;2023-06-14T01:16:08;8.50;99.90
12682;DHT22;6405;59.208;18.216;2023-06-14T01:18:35;8.40;99.90
12682;DHT22;6405;59.208;18.216;2023-06-14T01:21:01;8.40;99.90
12682;DHT22;6405;59.208;18.216;2023-06-14T01:23:31;8.40;99.90
12682;DHT22;6405;59.208;18.216;2023-06-14T01:25:59;8.40;99.90
12682;DHT22;6405;59.208;18.216;2023-06-14T01:28:25;8.40;99.90
12682;DHT22;6405;59.208;18.216;2023-06-14T01:31:00;8.40;99.90
12682;DHT22;6405;59.208;18.216;2023-06-14T01:33:30;8.40;99.90
12682;DHT22;6405;59.208;18.216;2023-06-14T01:35:56;8.30;99.90
12682;DHT22;6405;59.208;18.216;2023-06-14T01:38:24;8.30;99.90
12682;DHT22;6405;59.208;18.216;2023-06-14T01:40:52;8.30;99.90
12682;DHT22;6405;59.208;18.216;2023-06-14T01:43:20;8.30;99.90
12682;DHT22;6405;59.208;18.216;2023-06-14T01:45:48;8.30;99.90
12682;DHT22;6405;59.208;18.216;2023-06-14T01:48:14;8.20;99.90
12682;DHT22;6405;59.208;18.216;2023-06-14T01:50:41;8.30;99.90
12682;DHT22;6405;59.208;18.216;2023-06-14T01:53:10;8.30;99.90
12682;DHT22;6405;59.208;18.216;2023-06-14T01:55:36;8.30;99.90
12682;DHT22;6405;59.208;18.216;2023-06-14T01:58:06;8.30;99.90
12682;DHT22;6405;59.208;18.216;2023-06-14T02:00:32;8.40;99.90
12682;DHT22;6405;59.208;18.216;2023-06-14T02:02:58;8.40;99.90
12682;DHT22;6405;59.208;18.216;2023-06-14T02:05:24;8.40;99.90
12682;DHT22;6405;59.208;18.216;2023-06-14T02:07:50;8.50;99.90
12682;DHT22;6405;59.208;18.216;2023-06-14T02:10:16;8.60;99.90
12682;DHT22;6405;59.208;18.216;2023-06-14T02:12:43;8.70;99.90
12682;DHT22;6405;59.208;18.216;2023-06-14T02:15:09;8.70;99.90
12682;DHT22;6405;59.208;18.216;2023-06-14T02:17:45;8.80;99.90
12682;DHT22;6405;59.208;18.216;2023-06-14T02:20:13;8.90;99.90
12682;DHT22;6405;59.208;18.216;2023-06-14T02:22:39;8.90;99.90
12682;DHT22;6405;59.208;18.216;2023-06-14T02:25:05;9.00;99.90
12682;DHT22;6405;59.208;18.216;2023-06-14T02:27:32;9.00;99.90
12682;DHT22;6405;59.208;18.216;2023-06-14T02:29:57;9.00;99.90
12682;DHT22;6405;59.208;18.216;2023-06-14T02:32:23;9.10;99.90
12682;DHT22;6405;59.208;18.216;2023-06-14T02:34:49;9.10;99.90
12682;DHT22;6405;59.208;18.216;2023-06-14T02:37:16;9.10;99.90
12682;DHT22;6405;59.208;18.216;2023-06-14T02:39:41;9.20;99.90
12682;DHT22;6405;59.208;18.216;2023-06-14T02:42:07;9.10;99.90
12682;DHT22;6405;59.208;18.216;2023-06-14T02:44:33;9.20;99.90
12682;DHT22;6405;59.208;18.216;2023-06-14T02:46:59;9.20;99.90
12682;DHT22;6405;59.208;18.216;2023-06-14T02:49:26;9.30;99.90
12682;DHT22;6405;59.208;18.216;2023-06-14T02:51:52;9.30;99.90
12682;DHT22;6405;59.208;18.216;2023-06-14T02:54:17;9.40;99.90
12682;DHT22;6405;59.208;18.216;2023-06-14T02:56:43;9.40;99.90
12682;DHT22;6405;59.208;18.216;2023-06-14T02:59:09;9.50;99.90
12682;DHT22;6405;59.208;18.216;2023-06-14T03:01:35;9.50;99.90
12682;DHT22;6405;59.208;18.216;2023-06-14T03:04:04;9.50;99.90
12682;DHT22;6405;59.208;18.216;2023-06-14T03:06:30;9.50;99.90
12682;DHT22;6405;59.208;18.216;2023-06-14T03:09:03;9.50;99.90
12682;DHT22;6405;59.208;18.216;2023-06-14T03:11:32;9.60;99.90
12682;DHT22;6405;59.208;18.216;2023-06-14T03:13:59;9.60;99.90
12682;DHT22;6405;59.208;18.216;2023-06-14T03:16:25;9.70;99.90
12682;DHT22;6405;59.208;18.216;2023-06-14T03:18:54;9.80;99.90
12682;DHT22;6405;59.208;18.216;2023-06-14T03:21:20;9.90;99.90
12682;DHT22;6405;59.208;18.216;2023-06-14T03:23:48;9.90;99.90
12682;DHT22;6405;59.208;18.216;2023-06-14T03:26:15;10.00;99.90
12682;DHT22;6405;59.208;18.216;2023-06-14T03:28:44;10.00;99.90
12682;DHT22;6405;59.208;18.216;2023-06-14T03:31:11;10.00;99.90
12682;DHT22;6405;59.208;18.216;2023-06-14T03:33:36;10.00;99.90
12682;DHT22;6405;59.208;18.216;2023-06-14T03:36:02;10.00;99.90
12682;DHT22;6405;59.208;18.216;2023-06-14T03:38:29;10.00;99.90
12682;DHT22;6405;59.208;18.216;2023-06-14T03:40:54;10.00;99.90
12682;DHT22;6405;59.208;18.216;2023-06-14T03:43:20;10.00;99.90
12682;DHT22;6405;59.208;18.216;2023-06-14T03:45:46;10.10;99.90
12682;DHT22;6405;59.208;18.216;2023-06-14T03:48:12;10.10;99.90
12682;DHT22;6405;59.208;18.216;2023-06-14T03:50:37;10.10;99.90
12682;DHT22;6405;59.208;18.216;2023-06-14T03:53:08;10.20;99.90
12682;DHT22;6405;59.208;18.216;2023-06-14T03:55:34;10.30;99.90
12682;DHT22;6405;59.208;18.216;2023-06-14T03:58:00;10.30;99.90
12682;DHT22;6405;59.208;18.216;2023-06-14T04:00:26;10.50;99.90
12682;DHT22;6405;59.208;18.216;2023-06-14T04:02:52;10.60;99.90
12682;DHT22;6405;59.208;18.216;2023-06-14T04:05:19;10.80;99.90
12682;DHT22;6405;59.208;18.216;2023-06-14T04:07:46;10.80;99.90
12682;DHT22;6405;59.208;18.216;2023-06-14T04:10:15;11.00;99.90
12682;DHT22;6405;59.208;18.216;2023-06-14T04:12:41;11.10;99.90
12682;DHT22;6405;59.208;18.216;2023-06-14T04:15:08;11.10;99.90
12682;DHT22;6405;59.208;18.216;2023-06-14T04:17:35;11.20;99.90
12682;DHT22;6405;59.208;18.216;2023-06-14T04:20:02;11.40;99.90
12682;DHT22;6405;59.208;18.216;2023-06-14T04:22:30;11.30;99.90
12682;DHT22;6405;59.208;18.216;2023-06-14T04:24:57;11.30;99.90
12682;DHT22;6405;59.208;18.216;2023-06-14T04:27:28;11.40;99.90
12682;DHT22;6405;59.208;18.216;2023-06-14T04:29:57;11.40;99.90
12682;DHT22;6405;59.208;18.216;2023-06-14T04:32:24;11.40;99.90
12682;DHT22;6405;59.208;18.216;2023-06-14T04:34:56;11.50;99.90
12682;DHT22;6405;59.208;18.216;2023-06-14T04:37:23;11.50;99.90
12682;DHT22;6405;59.208;18.216;2023-06-14T04:39:48;11.60;99.90
12682;DHT22;6405;59.208;18.216;2023-06-14T04:42:15;11.60;99.90
12682;DHT22;6405;59.208;18.216;2023-06-14T04:44:44;11.70;99.90
12682;DHT22;6405;59.208;18.216;2023-06-14T04:47:10;11.80;99.90
12682;DHT22;6405;59.208;18.216;2023-06-14T04:49:38;11.90;99.90
12682;DHT22;6405;59.208;18.216;2023-06-14T04:52:06;12.00;99.90
12682;DHT22;6405;59.208;18.216;2023-06-14T04:54:32;12.20;99.90
12682;DHT22;6405;59.208;18.216;2023-06-14T04:56:59;12.30;99.90
12682;DHT22;6405;59.208;18.216;2023-06-14T04:59:25;12.40;99.90
12682;DHT22;6405;59.208;18.216;2023-06-14T05:01:51;12.50;99.90
12682;DHT22;6405;59.208;18.216;2023-06-14T05:04:18;12.70;99.90
12682;DHT22;6405;59.208;18.216;2023-06-14T05:06:44;12.90;99.90
12682;DHT22;6405;59.208;18.216;2023-06-14T05:09:11;13.00;99.90
12682;DHT22;6405;59.208;18.216;2023-06-14T05:11:37;13.10;99.90
12682;DHT22;6405;59.208;18.216;2023-06-14T05:14:03;13.30;99.90
12682;DHT22;6405;59.208;18.216;2023-06-14T05:16:29;13.30;99.90
12682;DHT22;6405;59.208;18.216;2023-06-14T05:18:55;13.50;99.90
12682;DHT22;6405;59.208;18.216;2023-06-14T05:21:21;13.60;99.90
12682;DHT22;6405;59.208;18.216;2023-06-14T05:23:47;13.70;99.90
12682;DHT22;6405;59.208;18.216;2023-06-14T05:26:13;13.80;99.90
12682;DHT22;6405;59.208;18.216;2023-06-14T05:28:39;14.00;99.90
12682;DHT22;6405;59.208;18.216;2023-06-14T05:31:05;14.10;99.90
12682;DHT22;6405;59.208;18.216;2023-06-14T05:33:30;14.20;99.90
12682;DHT22;6405;59.208;18.216;2023-06-14T05:35:56;14.40;99.90
12682;DHT22;6405;59.208;18.216;2023-06-14T05:38:22;14.50;99.90
12682;DHT22;6405;59.208;18.216;2023-06-14T05:40:48;14.70;99.90
12682;DHT22;6405;59.208;18.216;2023-06-14T05:43:13;14.80;99.90
12682;DHT22;6405;59.208;18.216;2023-06-14T05:45:39;14.90;99.90
12682;DHT22;6405;59.208;18.216;2023-06-14T05:48:05;15.00;99.90
12682;DHT22;6405;59.208;18.216;2023-06-14T05:50:31;15.20;99.90
12682;DHT22;6405;59.208;18.216;2023-06-14T05:52:56;15.30;99.90
12682;DHT22;6405;59.208;18.216;2023-06-14T05:55:22;15.50;99.90
12682;DHT22;6405;59.208;18.216;2023-06-14T05:57:48;15.60;99.90
12682;DHT22;6405;59.208;18.216;2023-06-14T06:00:14;15.80;99.90
12682;DHT22;6405;59.208;18.216;2023-06-14T06:02:44;16.10;99.90
12682;DHT22;6405;59.208;18.216;2023-06-14T06:05:10;16.40;99.90
12682;DHT22;6405;59.208;18.216;2023-06-14T06:07:37;16.80;99.90
12682;DHT22;6405;59.208;18.216;2023-06-14T06:10:03;17.20;99.90
12682;DHT22;6405;59.208;18.216;2023-06-14T06:12:30;17.40;99.90
12682;DHT22;6405;59.208;18.216;2023-06-14T06:14:56;17.60;99.90
12682;DHT22;6405;59.208;18.216;2023-06-14T06:17:22;17.70;99.90
12682;DHT22;6405;59.208;18.216;2023-06-14T06:19:47;17.70;99.90
12682;DHT22;6405;59.208;18.216;2023-06-14T06:22:13;17.80;99.90
12682;DHT22;6405;59.208;18.216;2023-06-14T06:24:39;17.80;99.90
12682;DHT22;6405;59.208;18.216;2023-06-14T06:27:05;17.80;99.90
12682;DHT22;6405;59.208;18.216;2023-06-14T06:29:33;17.90;99.90
12682;DHT22;6405;59.208;18.216;2023-06-14T06:31:59;17.80;99.90
12682;DHT22;6405;59.208;18.216;2023-06-14T06:34:26;17.90;99.90
12682;DHT22;6405;59.208;18.216;2023-06-14T06:36:52;17.90;99.90
12682;DHT22;6405;59.208;18.216;2023-06-14T06:39:19;18.10;99.90
12682;DHT22;6405;59.208;18.216;2023-06-14T06:41:44;18.10;99.90
12682;DHT22;6405;59.208;18.216;2023-06-14T06:44:10;18.20;99.90
12682;DHT22;6405;59.208;18.216;2023-06-14T06:46:36;18.30;99.90
12682;DHT22;6405;59.208;18.216;2023-06-14T06:49:06;18.60;99.90
12682;DHT22;6405;59.208;18.216;2023-06-14T06:51:32;18.80;99.90
12682;DHT22;6405;59.208;18.216;2023-06-14T06:53:58;18.90;99.90
12682;DHT22;6405;59.208;18.216;2023-06-14T06:56:23;18.90;99.90
12682;DHT22;6405;59.208;18.216;2023-06-14T06:58:52;19.00;99.90
12682;DHT22;6405;59.208;18.216;2023-06-14T07:01:18;19.00;99.90
12682;DHT22;6405;59.208;18.216;2023-06-14T07:03:45;19.10;99.90
12682;DHT22;6405;59.208;18.216;2023-06-14T07:06:11;19.30;99.90
12682;DHT22;6405;59.208;18.216;2023-06-14T07:08:37;19.50;99.90
12682;DHT22;6405;59.208;18.216;2023-06-14T07:11:06;19.60;99.90
12682;DHT22;6405;59.208;18.216;2023-06-14T07:13:32;19.60;99.90
12682;DHT22;6405;59.208;18.216;2023-06-14T07:15:59;19.60;99.90
12682;DHT22;6405;59.208;18.216;2023-06-14T07:18:26;19.70;99.90
12682;DHT22;6405;59.208;18.216;2023-06-14T07:20:53;19.80;99.90
12682;DHT22;6405;59.208;18.216;2023-06-14T07:23:20;20.20;99.90
12682;DHT22;6405;59.208;18.216;2023-06-14T07:25:46;20.50;99.90
12682;DHT22;6405;59.208;18.216;2023-06-14T07:28:12;20.70;99.90
12682;DHT22;6405;59.208;18.216;2023-06-14T07:30:37;20.90;99.90
12682;DHT22;6405;59.208;18.216;2023-06-14T07:33:03;21.10;99.90
12682;DHT22;6405;59.208;18.216;2023-06-14T07:35:29;21.40;99.90
12682;DHT22;6405;59.208;18.216;2023-06-14T07:37:55;21.70;99.90
12682;DHT22;6405;59.208;18.216;2023-06-14T07:40:21;22.10;99.90
12682;DHT22;6405;59.208;18.216;2023-06-14T07:42:47;22.50;99.90
12682;DHT22;6405;59.208;18.216;2023-06-14T07:45:16;22.70;99.90
12682;DHT22;6405;59.208;18.216;2023-06-14T07:47:42;23.00;99.90
12682;DHT22;6405;59.208;18.216;2023-06-14T07:50:08;23.10;99.90
12682;DHT22;6405;59.208;18.216;2023-06-14T07:52:34;23.50;99.90
12682;DHT22;6405;59.208;18.216;2023-06-14T07:55:00;23.50;99.90
12682;DHT22;6405;59.208;18.216;2023-06-14T07:57:25;23.50;99.90
12682;DHT22;6405;59.208;18.216;2023-06-14T07:59:51;23.70;99.90
12682;DHT22;6405;59.208;18.216;2023-06-14T08:02:18;23.80;99.90
12682;DHT22;6405;59.208;18.216;2023-06-14T08:04:44;24.00;99.90
12682;DHT22;6405;59.208;18.216;2023-06-14T08:07:11;24.00;99.90
12682;DHT22;6405;59.208;18.216;2023-06-14T08:09:36;24.20;99.90
12682;DHT22;6405;59.208;18.216;2023-06-14T08:12:05;24.50;99.90
12682;DHT22;6405;59.208;18.216;2023-06-14T08:14:33;24.40;99.90
12682;DHT22;6405;59.208;18.216;2023-06-14T08:16:59;24.40;99.90
12682;DHT22;6405;59.208;18.216;2023-06-14T08:19:25;24.50;99.90
12682;DHT22;6405;59.208;18.216;2023-06-14T08:21:51;24.80;99.90
12682;DHT22;6405;59.208;18.216;2023-06-14T08:24:16;24.80;99.90
12682;DHT22;6405;59.208;18.216;2023-06-14T08:26:44;24.90;99.90
12682;DHT22;6405;59.208;18.216;2023-06-14T08:29:09;25.10;99.90
12682;DHT22;6405;59.208;18.216;2023-06-14T08:31:35;25.40;99.90
12682;DHT22;6405;59.208;18.216;2023-06-14T08:34:01;25.50;99.90
12682;DHT22;6405;59.208;18.216;2023-06-14T08:36:27;25.40;99.90
12682;DHT22;6405;59.208;18.216;2023-06-14T08:38:52;25.50;99.90
12682;DHT22;6405;59.208;18.216;2023-06-14T08:41:21;25.60;99.90
12682;DHT22;6405;59.208;18.216;2023-06-14T08:43:50;25.80;99.90
12682;DHT22;6405;59.208;18.216;2023-06-14T08:46:18;25.80;99.90
12682;DHT22;6405;59.208;18.216;2023-06-14T08:48:51;26.00;99.90
12682;DHT22;6405;59.208;18.216;2023-06-14T08:51:22;26.20;99.90
12682;DHT22;6405;59.208;18.216;2023-06-14T08:53:55;26.20;99.90
12682;DHT22;6405;59.208;18.216;2023-06-14T08:56:29;26.20;99.90
12682;DHT22;6405;59.208;18.216;2023-06-14T08:58:57;26.30;99.90
12682;DHT22;6405;59.208;18.216;2023-06-14T09:01:23;26.30;99.90
12682;DHT22;6405;59.208;18.216;2023-06-14T09:03:50;26.20;99.90
12682;DHT22;6405;59.208;18.216;2023-06-14T09:06:17;26.30;99.90
12682;DHT22;6405;59.208;18.216;2023-06-14T09:08:45;26.50;99.90
12682;DHT22;6405;59.208;18.216;2023-06-14T09:11:12;26.60;99.90
12682;DHT22;6405;59.208;18.216;2023-06-14T09:13:39;26.60;99.90
12682;DHT22;6405;59.208;18.216;2023-06-14T09:16:06;26.50;99.90
12682;DHT22;6405;59.208;18.216;2023-06-14T09:18:39;26.40;99.90
12682;DHT22;6405;59.208;18.216;2023-06-14T09:21:07;26.50;99.90
12682;DHT22;6405;59.208;18.216;2023-06-14T09:23:37;26.40;99.90
12682;DHT22;6405;59.208;18.216;2023-06-14T09:26:24;26.60;99.90
12682;DHT22;6405;59.208;18.216;2023-06-14T09:28:50;26.60;99.90
12682;DHT22;6405;59.208;18.216;2023-06-14T09:31:17;26.40;99.90
12682;DHT22;6405;59.208;18.216;2023-06-14T09:33:44;26.60;99.90
12682;DHT22;6405;59.208;18.216;2023-06-14T09:36:24;26.70;99.90
12682;DHT22;6405;59.208;18.216;2023-06-14T09:41:20;26.70;99.90
12682;DHT22;6405;59.208;18.216;2023-06-14T09:43:47;26.70;99.90
12682;DHT22;6405;59.208;18.216;2023-06-14T09:46:13;26.60;99.90
12682;DHT22;6405;59.208;18.216;2023-06-14T09:48:39;26.80;99.90
12682;DHT22;6405;59.208;18.216;2023-06-14T09:51:10;26.80;99.90
12682;DHT22;6405;59.208;18.216;2023-06-14T09:53:40;26.70;99.90
12682;DHT22;6405;59.208;18.216;2023-06-14T09:56:07;26.70;99.90
12682;DHT22;6405;59.208;18.216;2023-06-14T09:58:33;26.80;99.90
12682;DHT22;6405;59.208;18.216;2023-06-14T10:01:01;26.90;99.90
12682;DHT22;6405;59.208;18.216;2023-06-14T10:03:29;26.80;99.90
12682;DHT22;6405;59.208;18.216;2023-06-14T10:05:58;26.80;99.90
12682;DHT22;6405;59.208;18.216;2023-06-14T10:08:28;26.50;99.90
12682;DHT22;6405;59.208;18.216;2023-06-14T10:10:56;26.60;99.90
12682;DHT22;6405;59.208;18.216;2023-06-14T10:13:22;26.70;99.90
12682;DHT22;6405;59.208;18.216;2023-06-14T10:16:08;26.70;99.90
12682;DHT22;6405;59.208;18.216;2023-06-14T10:18:51;26.70;99.90
12682;DHT22;6405;59.208;18.216;2023-06-14T10:21:31;26.80;99.90
12682;DHT22;6405;59.208;18.216;2023-06-14T10:24:03;27.00;99.90
12682;DHT22;6405;59.208;18.216;2023-06-14T10:26:31;27.00;99.90
12682;DHT22;6405;59.208;18.216;2023-06-14T10:29:07;27.10;99.90
12682;DHT22;6405;59.208;18.216;2023-06-14T10:31:47;27.00;99.90
12682;DHT22;6405;59.208;18.216;2023-06-14T10:37:06;27.00;99.90
12682;DHT22;6405;59.208;18.216;2023-06-14T10:39:40;26.90;99.90
12682;DHT22;6405;59.208;18.216;2023-06-14T10:42:12;26.80;99.90
12682;DHT22;6405;59.208;18.216;2023-06-14T10:44:54;26.70;99.90
12682;DHT22;6405;59.208;18.216;2023-06-14T10:47:33;26.90;99.90
12682;DHT22;6405;59.208;18.216;2023-06-14T10:50:10;27.00;99.90
12682;DHT22;6405;59.208;18.216;2023-06-14T10:52:40;27.00;99.90
12682;DHT22;6405;59.208;18.216;2023-06-14T10:55:13;27.00;99.90
12682;DHT22;6405;59.208;18.216;2023-06-14T10:57:51;27.00;99.90
12682;DHT22;6405;59.208;18.216;2023-06-14T11:00:30;27.00;99.90
12682;DHT22;6405;59.208;18.216;2023-06-14T11:10:46;27.30;99.90
12682;DHT22;6405;59.208;18.216;2023-06-14T11:13:16;27.30;99.90
12682;DHT22;6405;59.208;18.216;2023-06-14T11:15:44;27.50;99.90
12682;DHT22;6405;59.208;18.216;2023-06-14T11:18:13;27.40;99.90
12682;DHT22;6405;59.208;18.216;2023-06-14T11:20:39;27.20;99.90
12682;DHT22;6405;59.208;18.216;2023-06-14T11:23:05;27.40;99.90
12682;DHT22;6405;59.208;18.216;2023-06-14T11:25:32;27.30;99.90
12682;DHT22;6405;59.208;18.216;2023-06-14T11:27:58;27.40;99.90
12682;DHT22;6405;59.208;18.216;2023-06-14T11:30:24;27.30;99.90
12682;DHT22;6405;59.208;18.216;2023-06-14T11:32:54;27.30;99.90
12682;DHT22;6405;59.208;18.216;2023-06-14T11:35:23;27.10;99.90
12682;DHT22;6405;59.208;18.216;2023-06-14T11:37:56;27.20;99.90
12682;DHT22;6405;59.208;18.216;2023-06-14T11:40:26;27.20;99.90
12682;DHT22;6405;59.208;18.216;2023-06-14T11:43:02;27.20;99.90
12682;DHT22;6405;59.208;18.216;2023-06-14T11:45:29;27.40;99.90
12682;DHT22;6405;59.208;18.216;2023-06-14T11:47:56;27.40;99.90
12682;DHT22;6405;59.208;18.216;2023-06-14T11:50:22;27.50;99.90
12682;DHT22;6405;59.208;18.216;2023-06-14T11:55:22;27.50;99.90
12682;DHT22;6405;59.208;18.216;2023-06-14T11:57:48;27.30;99.90
12682;DHT22;6405;59.208;18.216;2023-06-14T12:00:14;27.20;99.90
12682;DHT22;6405;59.208;18.216;2023-06-14T12:02:41;27.10;99.90
12682;DHT22;6405;59.208;18.216;2023-06-14T12:05:08;27.20;99.90
12682;DHT22;6405;59.208;18.216;2023-06-14T12:07:38;27.20;99.90
12682;DHT22;6405;59.208;18.216;2023-06-14T12:10:08;27.40;99.90
12682;DHT22;6405;59.208;18.216;2023-06-14T12:12:40;27.30;99.90
12682;DHT22;6405;59.208;18.216;2023-06-14T12:15:07;27.30;99.90
12682;DHT22;6405;59.208;18.216;2023-06-14T12:17:34;27.30;99.90
12682;DHT22;6405;59.208;18.216;2023-06-14T12:20:08;27.40;99.90
12682;DHT22;6405;59.208;18.216;2023-06-14T12:22:58;27.40;99.90
12682;DHT22;6405;59.208;18.216;2023-06-14T12:25:31;27.50;99.90
12682;DHT22;6405;59.208;18.216;2023-06-14T12:28:07;27.60;99.90
12682;DHT22;6405;59.208;18.216;2023-06-14T12:30:35;27.70;99.90
12682;DHT22;6405;59.208;18.216;2023-06-14T12:33:02;27.60;99.90
12682;DHT22;6405;59.208;18.216;2023-06-14T12:35:28;27.40;99.90
12682;DHT22;6405;59.208;18.216;2023-06-14T12:37:53;27.50;99.90
12682;DHT22;6405;59.208;18.216;2023-06-14T12:40:19;27.30;99.90
12682;DHT22;6405;59.208;18.216;2023-06-14T12:42:45;27.50;99.90
12682;DHT22;6405;59.208;18.216;2023-06-14T12:45:13;27.40;99.90
12682;DHT22;6405;59.208;18.216;2023-06-14T12:47:40;27.40;99.90
12682;DHT22;6405;59.208;18.216;2023-06-14T12:50:06;27.60;99.90
12682;DHT22;6405;59.208;18.216;2023-06-14T12:52:32;27.60;99.90
12682;DHT22;6405;59.208;18.216;2023-06-14T12:55:05;27.60;99.90
12682;DHT22;6405;59.208;18.216;2023-06-14T12:57:31;27.80;99.90
12682;DHT22;6405;59.208;18.216;2023-06-14T12:59:57;27.90;99.90
12682;DHT22;6405;59.208;18.216;2023-06-14T13:02:22;27.90;99.90
12682;DHT22;6405;59.208;18.216;2023-06-14T13:04:50;27.80;99.90
12682;DHT22;6405;59.208;18.216;2023-06-14T13:07:16;27.80;99.90
12682;DHT22;6405;59.208;18.216;2023-06-14T13:09:42;27.60;99.90
12682;DHT22;6405;59.208;18.216;2023-06-14T13:12:09;27.60;99.90
12682;DHT22;6405;59.208;18.216;2023-06-14T13:14:36;27.50;99.90
12682;DHT22;6405;59.208;18.216;2023-06-14T13:17:02;27.50;99.90
12682;DHT22;6405;59.208;18.216;2023-06-14T13:19:28;27.50;99.90
12682;DHT22;6405;59.208;18.216;2023-06-14T13:21:54;27.60;99.90
12682;DHT22;6405;59.208;18.216;2023-06-14T13:24:20;27.40;99.90
12682;DHT22;6405;59.208;18.216;2023-06-14T13:26:46;27.50;99.90
12682;DHT22;6405;59.208;18.216;2023-06-14T13:29:11;27.30;99.90
12682;DHT22;6405;59.208;18.216;2023-06-14T13:31:37;27.50;99.90
12682;DHT22;6405;59.208;18.216;2023-06-14T13:34:03;27.40;99.90
12682;DHT22;6405;59.208;18.216;2023-06-14T13:36:30;27.40;99.90
12682;DHT22;6405;59.208;18.216;2023-06-14T13:38:55;27.50;99.90
12682;DHT22;6405;59.208;18.216;2023-06-14T13:41:21;27.50;99.90
12682;DHT22;6405;59.208;18.216;2023-06-14T13:43:47;27.40;99.90
12682;DHT22;6405;59.208;18.216;2023-06-14T13:46:13;27.40;99.90
12682;DHT22;6405;59.208;18.216;2023-06-14T13:48:38;27.30;99.90
12682;DHT22;6405;59.208;18.216;2023-06-14T13:51:04;27.40;99.90
12682;DHT22;6405;59.208;18.216;2023-06-14T13:53:31;27.40;99.90
12682;DHT22;6405;59.208;18.216;2023-06-14T13:55:57;27.20;99.90
12682;DHT22;6405;59.208;18.216;2023-06-14T13:58:22;27.30;99.90
12682;DHT22;6405;59.208;18.216;2023-06-14T14:00:49;27.30;99.90
12682;DHT22;6405;59.208;18.216;2023-06-14T14:03:15;27.40;99.90
12682;DHT22;6405;59.208;18.216;2023-06-14T14:05:41;27.30;99.90
12682;DHT22;6405;59.208;18.216;2023-06-14T14:08:07;27.40;99.90
12682;DHT22;6405;59.208;18.216;2023-06-14T14:10:32;27.40;99.90
12682;DHT22;6405;59.208;18.216;2023-06-14T14:12:58;27.30;99.90
12682;DHT22;6405;59.208;18.216;2023-06-14T14:15:25;27.30;99.90
12682;DHT22;6405;59.208;18.216;2023-06-14T14:17:51;27.20;99.90
12682;DHT22;6405;59.208;18.216;2023-06-14T14:20:17;27.30;99.90
12682;DHT22;6405;59.208;18.216;2023-06-14T14:22:43;27.20;99.90
12682;DHT22;6405;59.208;18.216;2023-06-14T14:25:09;27.20;99.90
12682;DHT22;6405;59.208;18.216;2023-06-14T14:27:36;27.20;99.90
12682;DHT22;6405;59.208;18.216;2023-06-14T14:30:03;27.10;99.90
12682;DHT22;6405;59.208;18.216;2023-06-14T14:32:29;27.20;99.90
12682;DHT22;6405;59.208;18.216;2023-06-14T14:34:55;27.20;99.90
12682;DHT22;6405;59.208;18.216;2023-06-14T14:37:21;27.20;99.90
12682;DHT22;6405;59.208;18.216;2023-06-14T14:39:46;27.10;99.90
12682;DHT22;6405;59.208;18.216;2023-06-14T14:42:12;27.10;99.90
12682;DHT22;6405;59.208;18.216;2023-06-14T14:44:39;27.10;99.90
12682;DHT22;6405;59.208;18.216;2023-06-14T14:47:05;27.10;99.90
12682;DHT22;6405;59.208;18.216;2023-06-14T14:49:31;27.00;99.90
12682;DHT22;6405;59.208;18.216;2023-06-14T14:51:57;27.00;99.90
12682;DHT22;6405;59.208;18.216;2023-06-14T14:54:23;27.10;99.90
12682;DHT22;6405;59.208;18.216;2023-06-14T14:56:51;26.90;99.90
12682;DHT22;6405;59.208;18.216;2023-06-14T14:59:17;27.00;99.90
12682;DHT22;6405;59.208;18.216;2023-06-14T15:01:44;26.80;99.90
12682;DHT22;6405;59.208;18.216;2023-06-14T15:04:11;26.70;99.90
12682;DHT22;6405;59.208;18.216;2023-06-14T15:06:37;26.70;99.90
12682;DHT22;6405;59.208;18.216;2023-06-14T15:09:05;26.60;99.90
12682;DHT22;6405;59.208;18.216;2023-06-14T15:11:31;26.60;99.90
12682;DHT22;6405;59.208;18.216;2023-06-14T15:13:58;26.40;99.90
12682;DHT22;6405;59.208;18.216;2023-06-14T15:16:23;26.20;99.90
12682;DHT22;6405;59.208;18.216;2023-06-14T15:18:49;26.00;99.90
12682;DHT22;6405;59.208;18.216;2023-06-14T15:21:15;25.80;99.90
12682;DHT22;6405;59.208;18.216;2023-06-14T15:23:41;25.50;99.90
12682;DHT22;6405;59.208;18.216;2023-06-14T15:26:07;25.40;99.90
12682;DHT22;6405;59.208;18.216;2023-06-14T15:28:32;25.40;99.90
12682;DHT22;6405;59.208;18.216;2023-06-14T15:30:59;25.30;99.90
12682;DHT22;6405;59.208;18.216;2023-06-14T15:33:25;25.20;99.90
12682;DHT22;6405;59.208;18.216;2023-06-14T15:35:50;25.10;99.90
12682;DHT22;6405;59.208;18.216;2023-06-14T15:38:16;25.00;99.90
12682;DHT22;6405;59.208;18.216;2023-06-14T15:40:42;24.90;99.90
12682;DHT22;6405;59.208;18.216;2023-06-14T15:43:09;24.90;99.90
12682;DHT22;6405;59.208;18.216;2023-06-14T15:45:34;24.90;99.90
12682;DHT22;6405;59.208;18.216;2023-06-14T15:48:02;24.80;99.90
12682;DHT22;6405;59.208;18.216;2023-06-14T15:50:28;24.70;99.90
12682;DHT22;6405;59.208;18.216;2023-06-14T15:52:54;24.50;99.90